createdAt,value
2018-04-17T00:00:10.387Z,15.72
2018-04-17T00:02:38.407Z,15.74
2018-04-17T00:05:06.419Z,15.69
2018-04-17T00:07:34.448Z,15.37
2018-04-17T00:10:02.493Z,15.71
2018-04-17T00:12:30.446Z,16.11
2018-04-17T00:14:58.474Z,16.07
2018-04-17T00:17:26.497Z,16.03
2018-04-17T00:19:54.518Z,16.27
2018-04-17T00:22:22.601Z,16.47
2018-04-17T00:24:50.553Z,16.37
2018-04-17T00:27:18.536Z,16.52
2018-04-17T00:29:46.545Z,16.64
2018-04-17T00:32:14.508Z,16.29
2018-04-17T00:34:42.486Z,15.81
2018-04-17T00:37:10.502Z,15.75
2018-04-17T00:39:38.432Z,15.42
2018-04-17T00:42:06.553Z,15.00
2018-04-17T00:44:34.738Z,15.15
2018-04-17T00:47:02.700Z,15.31
2018-04-17T00:49:30.688Z,16.34
2018-04-17T00:51:58.669Z,16.09
2018-04-17T00:54:26.715Z,16.20
2018-04-17T00:56:54.664Z,15.89
2018-04-17T00:59:22.750Z,15.11
2018-04-17T01:01:50.768Z,14.73
2018-04-17T01:04:18.833Z,14.61
2018-04-17T01:06:46.866Z,14.87
2018-04-17T01:09:14.925Z,14.89
2018-04-17T01:11:42.976Z,15.28
2018-04-17T01:14:10.964Z,14.86
2018-04-17T01:16:39.000Z,15.02
2018-04-17T01:19:07.135Z,15.12
2018-04-17T01:21:35.128Z,14.89
2018-04-17T01:24:03.114Z,15.40
2018-04-17T01:26:31.242Z,15.22
2018-04-17T01:28:59.189Z,15.63
2018-04-17T01:31:27.179Z,15.99
2018-04-17T01:33:55.274Z,16.21
2018-04-17T01:36:23.284Z,16.30
2018-04-17T01:38:51.293Z,15.96
2018-04-17T01:41:19.358Z,16.05
2018-04-17T01:43:47.323Z,15.96
2018-04-17T01:46:15.585Z,16.15
2018-04-17T01:48:43.631Z,16.31
2018-04-17T01:51:11.630Z,16.32
2018-04-17T01:53:39.675Z,16.32
2018-04-17T01:56:07.744Z,16.39
2018-04-17T01:58:35.771Z,16.43
2018-04-17T02:01:03.808Z,16.51
2018-04-17T02:03:31.898Z,16.52
2018-04-17T02:05:59.914Z,16.48
2018-04-17T02:08:27.934Z,16.51
2018-04-17T02:10:55.907Z,16.47
2018-04-17T02:13:23.908Z,16.42
2018-04-17T02:15:51.900Z,16.43
2018-04-17T02:18:19.904Z,16.31
2018-04-17T02:20:47.960Z,16.31
2018-04-17T02:23:15.953Z,16.29
2018-04-17T02:25:43.934Z,16.34
2018-04-17T02:28:12.015Z,16.27
2018-04-17T02:30:40.042Z,16.11
2018-04-17T02:33:08.088Z,16.21
2018-04-17T02:35:36.066Z,16.29
2018-04-17T02:38:04.094Z,15.50
2018-04-17T02:40:32.052Z,15.08
2018-04-17T02:43:00.066Z,15.17
2018-04-17T02:45:28.138Z,15.60
2018-04-17T02:47:56.641Z,15.86
2018-04-17T02:50:24.624Z,15.90
2018-04-17T02:52:52.613Z,15.02
2018-04-17T02:55:21.123Z,13.81
2018-04-17T02:57:49.155Z,13.98
2018-04-17T03:00:17.138Z,14.35
2018-04-17T03:02:45.128Z,15.08
2018-04-17T03:05:13.136Z,15.25
2018-04-17T03:07:41.127Z,15.51
2018-04-17T03:10:09.167Z,15.59
2018-04-17T03:12:37.259Z,15.87
2018-04-17T03:15:05.254Z,15.85
2018-04-17T03:17:33.269Z,15.84
2018-04-17T03:20:01.234Z,15.59
2018-04-17T03:22:29.274Z,15.43
2018-04-17T03:24:57.362Z,14.97
2018-04-17T03:27:25.504Z,15.02
2018-04-17T03:29:53.461Z,15.42
2018-04-17T03:32:21.482Z,15.61
2018-04-17T03:34:49.523Z,15.53
2018-04-17T03:37:17.511Z,14.99
2018-04-17T03:39:46.635Z,14.94
2018-04-17T03:42:14.579Z,14.70
2018-04-17T03:44:42.590Z,14.58
2018-04-17T03:47:10.632Z,15.13
2018-04-17T03:49:39.001Z,15.43
2018-04-17T03:52:07.048Z,14.47
2018-04-17T03:54:35.050Z,13.96
2018-04-17T03:57:03.047Z,13.80
2018-04-17T03:59:31.058Z,14.18
2018-04-17T04:01:59.043Z,14.64
2018-04-17T04:04:27.086Z,14.60
2018-04-17T04:06:55.081Z,15.01
2018-04-17T04:09:23.077Z,15.25
2018-04-17T04:11:51.125Z,14.92
2018-04-17T04:14:19.123Z,15.06
2018-04-17T04:16:58.862Z,15.28
2018-04-17T04:19:38.757Z,15.43
2018-04-17T04:22:18.552Z,15.43
2018-04-17T04:24:58.572Z,15.49
2018-04-17T04:27:26.725Z,15.53
2018-04-17T04:29:54.748Z,15.56
2018-04-17T04:32:23.429Z,15.63
2018-04-17T04:34:51.438Z,15.66
2018-04-17T04:37:19.473Z,15.76
2018-04-17T04:39:47.503Z,15.76
2018-04-17T04:42:15.734Z,15.84
2018-04-17T04:44:43.692Z,15.66
2018-04-17T04:47:11.734Z,15.83
2018-04-17T04:49:40.256Z,15.66
2018-04-17T04:52:08.293Z,15.61
2018-04-17T04:54:36.324Z,15.48
2018-04-17T04:57:04.342Z,15.40
2018-04-17T04:59:32.345Z,15.53
2018-04-17T05:02:00.362Z,14.91
2018-04-17T05:04:28.387Z,14.43
2018-04-17T05:06:56.372Z,14.61
2018-04-17T05:09:24.471Z,14.93
2018-04-17T05:11:52.474Z,15.23
2018-04-17T05:14:20.536Z,15.43
2018-04-17T05:16:48.798Z,15.98
2018-04-17T05:19:16.751Z,16.05
2018-04-17T05:21:44.751Z,16.07
2018-04-17T05:24:12.873Z,16.32
2018-04-17T05:26:40.834Z,15.88
2018-04-17T05:29:08.860Z,15.68
2018-04-17T05:31:36.962Z,16.20
2018-04-17T05:34:04.958Z,16.02
2018-04-17T05:36:32.982Z,15.55
2018-04-17T05:39:00.919Z,15.73
2018-04-17T05:41:29.057Z,16.04
2018-04-17T05:43:57.090Z,16.01
2018-04-17T05:46:25.171Z,16.57
2018-04-17T05:48:53.098Z,16.86
2018-04-17T05:51:21.498Z,17.08
2018-04-17T05:53:49.562Z,16.49
2018-04-17T05:56:17.688Z,16.45
2018-04-17T05:58:45.810Z,16.63
2018-04-17T06:01:13.865Z,17.18
2018-04-17T06:03:41.885Z,17.28
2018-04-17T06:06:09.851Z,17.26
2018-04-17T06:08:37.855Z,17.69
2018-04-17T06:11:05.845Z,18.01
2018-04-17T06:13:33.889Z,17.27
2018-04-17T06:16:01.902Z,16.44
2018-04-17T06:18:29.865Z,16.50
2018-04-17T06:20:57.891Z,17.12
2018-04-17T06:23:25.894Z,16.71
2018-04-17T06:25:53.890Z,16.85
2018-04-17T06:28:21.897Z,17.10
2018-04-17T06:30:49.895Z,17.44
2018-04-17T06:33:17.909Z,17.50
2018-04-17T06:35:45.898Z,18.25
2018-04-17T06:38:13.945Z,18.57
2018-04-17T06:40:41.978Z,18.69
2018-04-17T06:43:09.974Z,18.92
2018-04-17T06:45:37.975Z,18.59
2018-04-17T06:48:06.005Z,18.27
2018-04-17T06:50:34.040Z,17.77
2018-04-17T06:53:02.367Z,18.56
2018-04-17T06:55:30.303Z,18.89
2018-04-17T06:57:58.396Z,19.08
2018-04-17T07:00:26.394Z,18.97
2018-04-17T07:02:54.399Z,18.96
2018-04-17T07:05:22.474Z,19.59
2018-04-17T07:07:50.451Z,19.61
2018-04-17T07:10:18.497Z,19.89
2018-04-17T07:12:46.546Z,19.56
2018-04-17T07:15:14.519Z,19.52
2018-04-17T07:17:42.535Z,19.79
2018-04-17T07:20:10.555Z,19.89
2018-04-17T07:22:38.545Z,19.66
2018-04-17T07:25:06.523Z,19.56
2018-04-17T07:27:34.552Z,19.14
2018-04-17T07:30:02.591Z,18.88
2018-04-17T07:32:30.632Z,18.87
2018-04-17T07:34:58.722Z,19.02
2018-04-17T07:37:26.697Z,19.23
2018-04-17T07:39:54.714Z,19.17
2018-04-17T07:42:22.786Z,19.28
2018-04-17T07:44:50.786Z,19.66
2018-04-17T07:47:31.747Z,19.91
2018-04-17T07:50:00.703Z,20.25
2018-04-17T07:52:28.803Z,20.08
2018-04-17T07:54:57.303Z,20.14
2018-04-17T07:57:25.359Z,20.20
2018-04-17T07:59:53.315Z,20.59
2018-04-17T08:02:21.320Z,20.17
2018-04-17T08:04:49.452Z,20.29
2018-04-17T08:07:17.479Z,20.68
2018-04-17T08:09:45.510Z,20.79
2018-04-17T08:12:13.467Z,20.69
2018-04-17T08:14:41.532Z,20.17
2018-04-17T08:17:09.690Z,19.66
2018-04-17T08:19:37.754Z,20.88
2018-04-17T08:22:05.818Z,21.69
2018-04-17T08:24:33.866Z,21.40
2018-04-17T08:27:01.953Z,21.27
2018-04-17T08:29:29.968Z,20.82
2018-04-17T08:31:57.975Z,21.76
2018-04-17T08:34:25.983Z,22.40
2018-04-17T08:36:54.004Z,22.71
2018-04-17T08:39:22.028Z,23.68
2018-04-17T08:41:50.006Z,23.99
2018-04-17T08:44:17.995Z,23.90
2018-04-17T08:46:45.975Z,24.56
2018-04-17T08:49:13.936Z,24.97
2018-04-17T08:51:42.019Z,26.03
2018-04-17T08:54:10.071Z,26.60
2018-04-17T08:56:38.382Z,26.54
2018-04-17T08:59:06.371Z,27.27
2018-04-17T09:01:34.437Z,26.90
2018-04-17T09:04:02.468Z,27.65
2018-04-17T09:06:30.512Z,27.43
2018-04-17T09:08:58.651Z,28.36
2018-04-17T09:11:26.730Z,27.19
2018-04-17T09:13:54.744Z,27.51
2018-04-17T09:16:22.738Z,28.31
2018-04-17T09:18:50.844Z,28.29
2018-04-17T09:21:18.866Z,29.67
2018-04-17T09:23:46.898Z,29.55
2018-04-17T09:26:14.932Z,28.59
2018-04-17T09:28:42.962Z,29.16
2018-04-17T09:31:10.979Z,28.06
2018-04-17T09:33:38.987Z,28.66
2018-04-17T09:36:07.128Z,28.55
2018-04-17T09:38:35.102Z,28.33
2018-04-17T09:41:03.150Z,29.62
2018-04-17T09:43:31.206Z,29.03
2018-04-17T09:45:59.133Z,29.97
2018-04-17T09:48:27.107Z,28.51
2018-04-17T09:50:55.131Z,28.86
2018-04-17T09:53:23.154Z,28.71
2018-04-17T09:55:51.297Z,28.76
2018-04-17T09:58:19.633Z,29.71
2018-04-17T10:00:53.167Z,28.79
2018-04-17T10:03:21.221Z,28.77
2018-04-17T10:05:49.230Z,30.68
2018-04-17T10:08:17.292Z,30.13
2018-04-17T10:10:45.286Z,29.88
2018-04-17T10:13:13.341Z,30.72
2018-04-17T10:15:41.415Z,30.45
2018-04-17T10:18:09.421Z,30.55
2018-04-17T10:20:37.474Z,31.05
2018-04-17T10:23:05.491Z,30.18
2018-04-17T10:25:33.585Z,30.98
2018-04-17T10:28:01.574Z,30.36
2018-04-17T10:30:29.550Z,31.65
2018-04-17T10:32:57.926Z,32.02
2018-04-17T10:35:26.415Z,32.61
2018-04-17T10:37:54.469Z,32.18
2018-04-17T10:40:22.451Z,31.68
2018-04-17T10:42:50.415Z,31.78
2018-04-17T10:45:18.439Z,30.54
2018-04-17T10:47:46.423Z,31.70
2018-04-17T10:50:14.494Z,31.63
2018-04-17T10:52:42.517Z,31.94
2018-04-17T10:55:10.562Z,31.60
2018-04-17T10:57:38.595Z,31.87
2018-04-17T11:00:06.963Z,32.17
2018-04-17T11:02:35.009Z,31.97
2018-04-17T11:05:03.044Z,32.32
2018-04-17T11:07:31.126Z,33.44
2018-04-17T11:09:59.110Z,31.57
2018-04-17T11:12:27.118Z,31.76
2018-04-17T11:14:55.596Z,33.07
2018-04-17T11:17:24.019Z,30.87
2018-04-17T11:19:52.297Z,30.59
2018-04-17T11:22:20.880Z,31.11
2018-04-17T11:24:49.257Z,30.22
2018-04-17T11:27:18.205Z,30.31
2018-04-17T11:29:46.645Z,32.17
2018-04-17T11:32:15.102Z,32.88
2018-04-17T11:34:43.303Z,33.53
2018-04-17T11:37:11.856Z,31.38
2018-04-17T11:39:40.275Z,30.37
2018-04-17T11:42:08.636Z,30.35
2018-04-17T11:44:37.027Z,32.50
2018-04-17T11:47:05.374Z,28.86
2018-04-17T11:49:33.852Z,28.02
2018-04-17T11:52:02.171Z,28.03
2018-04-17T11:54:30.713Z,28.09
2018-04-17T11:56:59.194Z,27.35
2018-04-17T11:59:27.648Z,26.88
2018-04-17T12:01:56.581Z,26.07
2018-04-17T12:04:24.921Z,26.81
2018-04-17T12:06:53.020Z,26.75
2018-04-17T12:09:21.036Z,25.55
2018-04-17T12:11:49.033Z,25.90
2018-04-17T12:14:17.065Z,25.40
2018-04-17T12:16:45.052Z,25.21
2018-04-17T12:19:12.992Z,25.49
2018-04-17T12:21:41.024Z,25.50
2018-04-17T12:24:09.061Z,24.82
2018-04-17T12:26:37.091Z,23.80
2018-04-17T12:29:05.306Z,23.86
2018-04-17T12:31:33.408Z,22.82
2018-04-17T12:34:01.390Z,22.07
2018-04-17T12:36:29.411Z,22.02
2018-04-17T12:38:57.438Z,21.72
2018-04-17T12:41:25.474Z,21.31
2018-04-17T12:43:53.473Z,21.11
2018-04-17T12:46:21.445Z,21.14
2018-04-17T12:48:49.526Z,20.91
2018-04-17T12:51:17.569Z,21.00
2018-04-17T12:53:45.548Z,21.01
2018-04-17T12:56:13.604Z,20.20
2018-04-17T12:58:41.624Z,20.16
2018-04-17T13:01:09.649Z,20.39
2018-04-17T13:03:37.943Z,20.90
2018-04-17T13:06:05.978Z,21.64
2018-04-17T13:08:34.000Z,21.90
2018-04-17T13:11:02.024Z,21.21
2018-04-17T13:13:30.142Z,21.44
2018-04-17T13:15:58.150Z,21.59
2018-04-17T13:18:26.142Z,21.58
2018-04-17T13:20:54.194Z,21.17
2018-04-17T13:23:22.223Z,21.64
2018-04-17T13:25:50.292Z,22.06
2018-04-17T13:28:18.305Z,22.48
2018-04-17T13:30:46.342Z,21.62
2018-04-17T13:33:14.337Z,22.01
2018-04-17T13:35:42.368Z,22.20
2018-04-17T13:38:10.383Z,21.76
2018-04-17T13:40:38.385Z,22.04
2018-04-17T13:43:06.368Z,22.08
2018-04-17T13:45:34.387Z,22.55
2018-04-17T13:48:02.412Z,22.87
2018-04-17T13:50:30.395Z,22.52
2018-04-17T13:52:58.455Z,22.64
2018-04-17T13:55:26.423Z,22.36
2018-04-17T13:57:54.453Z,22.87
2018-04-17T14:00:22.441Z,23.31
2018-04-17T14:02:50.477Z,22.41
2018-04-17T14:05:18.854Z,21.49
2018-04-17T14:07:46.849Z,21.10
2018-04-17T14:10:14.882Z,19.41
2018-04-17T14:12:42.874Z,19.30
2018-04-17T14:15:10.934Z,19.56
2018-04-17T14:17:38.962Z,19.57
2018-04-17T14:20:07.037Z,19.23
2018-04-17T14:22:35.125Z,19.57
2018-04-17T14:25:03.149Z,19.48
2018-04-17T14:27:31.120Z,19.13
2018-04-17T14:29:59.200Z,18.81
2018-04-17T14:32:27.142Z,19.33
2018-04-17T14:34:55.214Z,19.39
2018-04-17T14:37:23.270Z,18.88
2018-04-17T14:39:51.221Z,18.84
2018-04-17T14:42:19.211Z,19.19
2018-04-17T14:44:47.240Z,18.83
2018-04-17T14:47:15.284Z,18.25
2018-04-17T14:49:43.397Z,18.41
2018-04-17T14:52:11.386Z,18.25
2018-04-17T14:54:39.366Z,18.49
2018-04-17T14:57:07.341Z,18.20
2018-04-17T14:59:35.391Z,17.97
2018-04-17T15:02:03.372Z,18.00
2018-04-17T15:04:31.393Z,17.71
2018-04-17T15:06:59.885Z,17.55
2018-04-17T15:09:27.865Z,17.90
2018-04-17T15:11:55.949Z,17.79
2018-04-17T15:14:23.930Z,17.94
2018-04-17T15:16:51.939Z,18.08
2018-04-17T15:19:19.976Z,18.43
2018-04-17T15:21:47.998Z,18.68
2018-04-17T15:24:16.086Z,18.79
2018-04-17T15:26:44.057Z,19.26
2018-04-17T15:29:12.049Z,18.65
2018-04-17T15:31:40.030Z,18.44
2018-04-17T15:34:08.059Z,18.93
2018-04-17T15:36:36.116Z,19.45
2018-04-17T15:39:04.291Z,19.61
2018-04-17T15:41:32.255Z,19.69
2018-04-17T15:44:00.213Z,19.74
2018-04-17T15:46:28.289Z,19.70
2018-04-17T15:48:56.255Z,19.30
2018-04-17T15:51:24.337Z,19.09
2018-04-17T15:53:52.400Z,18.35
2018-04-17T15:56:20.367Z,18.72
2018-04-17T15:58:48.323Z,18.70
2018-04-17T16:01:16.346Z,18.94
2018-04-17T16:03:44.354Z,18.89
2018-04-17T16:06:13.787Z,18.57
2018-04-17T16:08:42.573Z,18.93
2018-04-17T16:11:10.561Z,18.73
2018-04-17T16:13:38.567Z,18.72
2018-04-17T16:16:06.638Z,18.63
2018-04-17T16:18:34.631Z,18.67
2018-04-17T16:21:02.657Z,18.24
2018-04-17T16:23:30.728Z,17.81
2018-04-17T16:25:58.865Z,17.60
2018-04-17T16:28:26.954Z,17.76
2018-04-17T16:30:54.946Z,17.25
2018-04-17T16:33:23.002Z,18.09
2018-04-17T16:35:50.984Z,18.03
2018-04-17T16:38:19.026Z,18.62
2018-04-17T16:40:47.110Z,18.55
2018-04-17T16:43:15.131Z,18.61
2018-04-17T16:45:43.122Z,18.74
2018-04-17T16:48:11.184Z,18.32
2018-04-17T16:50:39.169Z,18.49
2018-04-17T16:53:07.328Z,18.42
2018-04-17T16:55:35.318Z,17.71
2018-04-17T16:58:03.302Z,17.50
2018-04-17T17:00:31.381Z,17.20
2018-04-17T17:02:59.418Z,17.43
2018-04-17T17:05:27.551Z,17.87
2018-04-17T17:07:55.663Z,17.28
2018-04-17T17:10:23.978Z,16.86
2018-04-17T17:12:52.043Z,17.00
2018-04-17T17:15:19.986Z,16.86
2018-04-17T17:17:47.998Z,17.14
2018-04-17T17:20:16.031Z,17.23
2018-04-17T17:22:44.010Z,17.36
2018-04-17T17:25:12.149Z,17.70
2018-04-17T17:27:40.520Z,17.80
2018-04-17T17:30:08.935Z,17.95
2018-04-17T17:32:37.318Z,17.21
2018-04-17T17:35:06.247Z,16.94
2018-04-17T17:37:34.740Z,16.74
2018-04-17T17:40:03.473Z,17.02
2018-04-17T17:42:31.717Z,16.70
2018-04-17T17:45:00.155Z,16.58
2018-04-17T17:47:28.611Z,16.05
2018-04-17T17:49:57.161Z,16.40
2018-04-17T17:52:25.574Z,16.50
2018-04-17T17:54:54.209Z,16.56
2018-04-17T17:57:22.697Z,16.33
2018-04-17T17:59:51.137Z,16.05
2018-04-17T18:02:19.811Z,15.79
2018-04-17T18:04:48.244Z,16.35
2018-04-17T18:07:16.724Z,16.56
2018-04-17T18:09:45.138Z,17.05
2018-04-17T18:12:13.739Z,17.17
2018-04-17T18:14:42.116Z,16.94
2018-04-17T18:17:10.577Z,16.92
2018-04-17T18:19:39.110Z,17.06
2018-04-17T18:22:07.438Z,16.41
2018-04-17T18:24:35.859Z,16.60
2018-04-17T18:27:04.396Z,15.89
2018-04-17T18:29:32.970Z,15.87
2018-04-17T18:32:01.630Z,15.67
2018-04-17T18:34:30.059Z,15.49
2018-04-17T18:36:58.230Z,15.18
2018-04-17T18:39:26.705Z,15.90
2018-04-17T18:41:55.282Z,15.96
2018-04-17T18:44:24.029Z,15.56
2018-04-17T18:46:52.288Z,15.56
2018-04-17T18:49:21.030Z,16.14
2018-04-17T18:51:49.700Z,16.30
2018-04-17T18:54:17.852Z,16.25
2018-04-17T18:56:46.266Z,16.54
2018-04-17T18:59:14.682Z,16.61
2018-04-17T19:01:43.340Z,16.37
2018-04-17T19:04:12.129Z,16.15
2018-04-17T19:06:40.291Z,15.58
2018-04-17T19:09:08.308Z,15.57
2018-04-17T19:11:36.395Z,15.46
2018-04-17T19:14:04.886Z,15.36
2018-04-17T19:16:33.182Z,15.27
2018-04-17T19:19:01.497Z,15.32
2018-04-17T19:21:29.951Z,15.30
2018-04-17T19:23:58.267Z,15.43
2018-04-17T19:26:26.354Z,15.40
2018-04-17T19:28:54.718Z,15.74
2018-04-17T19:31:22.798Z,16.14
2018-04-17T19:33:50.816Z,16.19
2018-04-17T19:36:18.851Z,16.51
2018-04-17T19:38:47.274Z,16.58
2018-04-17T19:41:15.317Z,16.81
2018-04-17T19:43:43.337Z,16.82
2018-04-17T19:46:11.330Z,16.93
2018-04-17T19:48:39.330Z,16.93
2018-04-17T19:51:07.409Z,16.93
2018-04-17T19:53:35.436Z,16.93
2018-04-17T19:56:03.496Z,16.83
2018-04-17T19:58:31.516Z,15.83
2018-04-17T20:00:59.483Z,15.93
2018-04-17T20:03:27.499Z,16.19
2018-04-17T20:05:55.502Z,16.33
2018-04-17T20:08:23.546Z,16.35
2018-04-17T20:10:51.543Z,16.56
2018-04-17T20:13:19.539Z,16.74
2018-04-17T20:15:47.818Z,16.51
2018-04-17T20:18:15.832Z,16.60
2018-04-17T20:20:43.868Z,15.91
2018-04-17T20:23:11.912Z,15.53
2018-04-17T20:25:39.905Z,15.53
2018-04-17T20:28:07.870Z,15.43
2018-04-17T20:30:35.941Z,15.37
2018-04-17T20:33:03.947Z,15.09
2018-04-17T20:35:32.491Z,15.04
2018-04-17T20:38:01.060Z,15.33
2018-04-17T20:40:29.457Z,15.08
2018-04-17T20:42:58.004Z,14.90
2018-04-17T20:45:26.801Z,15.08
2018-04-17T20:47:55.439Z,15.64
2018-04-17T20:50:23.677Z,15.63
2018-04-17T20:52:52.106Z,15.84
2018-04-17T20:55:20.689Z,15.77
2018-04-17T20:57:48.893Z,16.00
2018-04-17T21:00:17.216Z,15.75
2018-04-17T21:02:45.874Z,15.95
2018-04-17T21:05:14.536Z,16.02
2018-04-17T21:07:42.765Z,16.02
2018-04-17T21:10:11.097Z,16.07
2018-04-17T21:12:39.538Z,16.05
2018-04-17T21:15:07.965Z,16.12
2018-04-17T21:17:36.632Z,16.12
2018-04-17T21:20:05.118Z,16.05
2018-04-17T21:22:33.403Z,16.01
2018-04-17T21:25:01.780Z,15.96
2018-04-17T21:27:29.903Z,16.00
2018-04-17T21:29:58.724Z,16.03
2018-04-17T21:32:27.110Z,16.07
2018-04-17T21:34:55.608Z,16.02
2018-04-17T21:37:23.960Z,15.95
2018-04-17T21:39:52.339Z,15.86
2018-04-17T21:42:20.838Z,15.79
2018-04-17T21:44:49.410Z,15.77
2018-04-17T21:47:17.855Z,15.66
2018-04-17T21:49:45.946Z,15.73
2018-04-17T21:52:14.176Z,15.68
2018-04-17T21:54:43.362Z,15.46
2018-04-17T21:57:11.744Z,15.27
2018-04-17T21:59:40.090Z,15.52
2018-04-17T22:02:08.487Z,15.56
2018-04-17T22:04:37.056Z,15.50
2018-04-17T22:07:05.437Z,15.62
2018-04-17T22:09:33.930Z,15.56
2018-04-17T22:12:02.482Z,15.25
2018-04-17T22:14:31.158Z,15.34
2018-04-17T22:16:59.660Z,15.40
2018-04-17T22:19:28.458Z,15.43
2018-04-17T22:21:56.918Z,15.45
2018-04-17T22:24:25.189Z,15.43
2018-04-17T22:26:53.623Z,15.42
2018-04-17T22:29:22.153Z,14.80
2018-04-17T22:31:50.541Z,14.79
2018-04-17T22:34:19.760Z,15.05
2018-04-17T22:36:48.756Z,14.69
2018-04-17T22:39:17.655Z,15.03
2018-04-17T22:41:46.394Z,15.21
2018-04-17T22:44:16.587Z,15.30
2018-04-17T22:46:45.942Z,14.64
2018-04-17T22:49:14.201Z,14.83
2018-04-17T22:51:42.792Z,14.05
2018-04-17T22:54:11.115Z,14.00
2018-04-17T22:56:39.738Z,14.59
2018-04-17T22:59:08.085Z,14.75
2018-04-17T23:01:36.208Z,14.70
2018-04-17T23:04:04.868Z,14.31
2018-04-17T23:06:33.115Z,13.89
2018-04-17T23:09:01.637Z,13.58
2018-04-17T23:11:30.006Z,13.98
2018-04-17T23:13:58.525Z,14.39
2018-04-17T23:16:26.960Z,14.72
2018-04-17T23:18:55.417Z,14.85
2018-04-17T23:21:24.056Z,14.78
2018-04-17T23:23:52.505Z,14.71
2018-04-17T23:26:20.652Z,14.74
2018-04-17T23:28:49.386Z,14.86
2018-04-17T23:31:18.148Z,14.85
2018-04-17T23:33:46.505Z,14.88
2018-04-17T23:36:14.929Z,14.93
2018-04-17T23:38:43.492Z,14.82
2018-04-17T23:41:12.148Z,14.88
2018-04-17T23:43:40.567Z,14.86
2018-04-17T23:46:09.032Z,14.72
2018-04-17T23:48:37.333Z,14.82
2018-04-17T23:51:05.898Z,13.96
2018-04-17T23:53:34.349Z,14.37
2018-04-17T23:56:02.875Z,14.57
2018-04-17T23:58:31.242Z,14.65
